createdAt,value
2023-01-10T00:01:39.166Z,48.66
2023-01-10T00:04:06.107Z,48.76
2023-01-10T00:06:33.278Z,48.73
2023-01-10T00:09:00.722Z,48.65
2023-01-10T00:11:46.605Z,48.22
2023-01-10T00:14:13.751Z,48.29
2023-01-10T00:16:42.730Z,48.47
2023-01-10T00:19:10.861Z,48.45
2023-01-10T00:21:38.047Z,48.47
2023-01-10T00:24:35.329Z,48.43
2023-01-10T00:27:03.396Z,48.42
2023-01-10T00:29:34.261Z,48.38
2023-01-10T00:32:01.296Z,48.45
2023-01-10T00:34:28.435Z,48.39
2023-01-10T00:36:55.480Z,48.60
2023-01-10T00:39:25.907Z,48.52
2023-01-10T00:42:13.946Z,48.48
2023-01-10T00:44:41.005Z,48.60
2023-01-10T00:47:07.838Z,48.66
2023-01-10T00:49:34.781Z,48.77
2023-01-10T00:52:01.931Z,48.72
2023-01-10T00:54:28.772Z,48.90
2023-01-10T00:56:55.821Z,49.05
2023-01-10T00:59:23.075Z,48.93
2023-01-10T01:01:52.697Z,48.69
2023-01-10T01:04:19.729Z,48.64
2023-01-10T01:06:50.973Z,48.75
2023-01-10T01:09:18.224Z,48.99
2023-01-10T01:11:45.073Z,49.04
2023-01-10T01:14:13.175Z,49.19
2023-01-10T01:16:40.087Z,49.34
2023-01-10T01:19:07.134Z,49.40
2023-01-10T01:21:34.080Z,49.53
2023-01-10T01:24:01.032Z,49.41
2023-01-10T01:26:27.980Z,49.38
2023-01-10T01:28:55.223Z,49.57
2023-01-10T01:31:22.139Z,49.90
2023-01-10T01:33:49.321Z,49.99
2023-01-10T01:36:16.367Z,50.19
2023-01-10T01:38:43.323Z,50.39
2023-01-10T01:41:29.003Z,50.48
2023-01-10T01:44:07.205Z,50.67
2023-01-10T01:46:35.875Z,50.89
2023-01-10T01:49:04.788Z,51.03
2023-01-10T01:51:31.732Z,51.18
2023-01-10T01:54:07.744Z,51.09
2023-01-10T01:56:45.648Z,51.06
2023-01-10T01:59:18.010Z,51.22
2023-01-10T02:01:47.019Z,51.35
2023-01-10T02:04:18.127Z,51.51
2023-01-10T02:06:46.250Z,51.41
2023-01-10T02:09:36.971Z,51.62
2023-01-10T02:12:04.126Z,51.68
2023-01-10T02:14:31.476Z,51.84
2023-01-10T02:16:58.426Z,51.93
2023-01-10T02:19:39.190Z,52.10
2023-01-10T02:22:43.759Z,52.35
2023-01-10T02:25:41.492Z,52.60
2023-01-10T02:28:19.666Z,52.55
2023-01-10T02:31:20.788Z,52.62
2023-01-10T02:33:53.828Z,52.46
2023-01-10T02:36:33.061Z,52.00
2023-01-10T02:39:18.250Z,52.00
2023-01-10T02:41:48.613Z,52.05
2023-01-10T04:01:16.741Z,53.16
2023-01-10T04:03:43.852Z,52.48
2023-01-10T04:06:28.697Z,52.57
2023-01-10T04:08:55.433Z,52.72
2023-01-10T04:11:22.376Z,52.87
2023-01-10T04:13:50.961Z,53.09
2023-01-10T04:16:17.894Z,53.19
2023-01-10T04:18:44.955Z,53.22
2023-01-10T04:21:12.102Z,53.24
2023-01-10T04:23:38.882Z,53.37
2023-01-10T04:26:07.108Z,53.48
2023-01-10T04:28:34.334Z,53.71
2023-01-10T04:31:01.624Z,53.57
2023-01-10T04:33:29.185Z,53.69
2023-01-10T04:35:56.341Z,53.97
2023-01-10T04:38:23.180Z,54.18
2023-01-10T04:40:54.230Z,54.38
2023-01-10T04:43:21.677Z,54.50
2023-01-10T04:45:48.569Z,54.74
2023-01-10T04:48:15.702Z,54.78
2023-01-10T04:50:42.638Z,54.84
2023-01-10T04:53:09.698Z,54.83
2023-01-10T04:55:36.513Z,54.99
2023-01-10T04:58:04.127Z,55.20
2023-01-10T05:15:58.442Z,55.23
2023-01-10T05:18:26.211Z,54.66
2023-01-10T05:20:53.200Z,54.61
2023-01-10T05:23:20.207Z,54.82
2023-01-10T05:25:47.062Z,55.12
2023-01-10T05:28:13.989Z,55.35
2023-01-10T05:30:40.934Z,55.43
2023-01-10T05:33:07.767Z,55.71
2023-01-10T05:35:34.926Z,56.15
2023-01-10T05:38:01.853Z,56.42
2023-01-10T05:40:28.927Z,56.67
2023-01-10T05:42:55.866Z,56.92
2023-01-10T05:45:22.776Z,56.93
2023-01-10T05:47:49.581Z,57.22
2023-01-10T05:50:18.865Z,57.20
2023-01-10T05:52:46.104Z,57.25
2023-01-10T05:55:12.951Z,57.25
2023-01-10T05:57:39.794Z,57.24
2023-01-10T06:00:07.695Z,56.98
2023-01-10T06:02:38.484Z,56.78
2023-01-10T06:05:06.043Z,56.86
2023-01-10T06:07:33.004Z,56.75
2023-01-10T06:09:59.843Z,57.00
2023-01-10T06:12:26.793Z,57.23
2023-01-10T06:14:53.737Z,57.16
2023-01-10T06:17:20.683Z,57.24
2023-01-10T06:19:47.562Z,57.34
2023-01-10T06:22:14.677Z,57.38
2023-01-10T06:24:42.549Z,57.45
2023-01-10T06:27:09.904Z,57.54
2023-01-10T06:29:36.851Z,57.58
2023-01-10T06:32:03.670Z,57.56
2023-01-10T06:34:30.631Z,57.53
2023-01-10T06:36:58.700Z,57.33
2023-01-10T06:39:25.542Z,57.44
2023-01-10T06:41:52.486Z,57.72
2023-01-10T06:44:19.431Z,57.86
2023-01-10T06:46:46.221Z,57.87
2023-01-10T06:49:13.019Z,57.84
2023-01-10T06:51:39.962Z,57.75
2023-01-10T06:54:06.860Z,57.77
2023-01-10T06:56:33.702Z,57.99
2023-01-10T06:59:00.801Z,57.94
2023-01-10T07:01:28.430Z,58.00
2023-01-10T07:03:55.511Z,57.74
2023-01-10T07:06:22.654Z,57.70
2023-01-10T07:08:49.600Z,57.74
2023-01-10T07:11:17.882Z,57.90
2023-01-10T07:13:44.821Z,57.68
2023-01-10T07:16:13.950Z,57.65
2023-01-10T07:18:41.601Z,57.41
2023-01-10T07:21:09.550Z,57.36
2023-01-10T07:23:36.463Z,57.53
2023-01-10T07:26:05.040Z,57.40
2023-01-10T07:28:34.494Z,57.31
2023-01-10T07:31:02.287Z,57.35
2023-01-10T07:33:29.714Z,57.35
2023-01-10T07:35:56.850Z,57.47
2023-01-10T07:38:23.796Z,57.48
2023-01-10T07:40:50.605Z,57.53
2023-01-10T07:44:42.256Z,57.58
2023-01-10T07:47:09.142Z,57.48
2023-01-10T07:49:36.150Z,57.45
2023-01-10T07:52:03.088Z,57.35
2023-01-10T07:54:30.037Z,56.97
2023-01-10T07:56:56.985Z,56.65
2023-01-10T07:59:23.899Z,55.86
2023-01-10T08:01:50.875Z,55.50
2023-01-10T08:04:17.822Z,54.99
2023-01-10T08:06:44.864Z,54.94
2023-01-10T08:09:11.808Z,54.45
2023-01-10T08:11:40.750Z,54.52
2023-01-10T08:14:08.730Z,54.26
2023-01-10T08:16:35.720Z,54.33
2023-01-10T08:19:02.563Z,54.00
2023-01-10T08:21:29.419Z,53.87
2023-01-10T08:23:56.350Z,54.01
2023-01-10T08:26:23.293Z,53.82
2023-01-10T08:28:50.545Z,53.58
2023-01-10T08:31:17.619Z,53.60
2023-01-10T08:33:44.543Z,53.68
2023-01-10T08:36:16.401Z,53.64
2023-01-10T08:38:43.352Z,53.43
2023-01-10T08:41:10.292Z,53.28
2023-01-10T08:43:37.235Z,53.03
2023-01-10T08:46:04.111Z,52.58
2023-01-10T08:48:33.541Z,52.23
2023-01-10T08:51:05.880Z,52.17
2023-01-10T08:53:32.799Z,51.89
2023-01-10T08:55:59.745Z,51.62
2023-01-10T08:58:26.623Z,51.58
2023-01-10T09:00:56.030Z,51.47
2023-01-10T09:03:23.656Z,51.36
2023-01-10T09:05:50.703Z,51.14
2023-01-10T09:08:17.540Z,50.64
2023-01-10T09:10:48.282Z,50.26
2023-01-10T09:13:15.946Z,50.02
2023-01-10T09:15:43.591Z,49.76
2023-01-10T09:18:11.573Z,49.73
2023-01-10T09:20:39.648Z,49.74
2023-01-10T09:23:08.631Z,49.85
2023-01-10T09:25:35.592Z,49.85
2023-01-10T09:28:03.447Z,49.27
2023-01-10T09:30:30.597Z,48.94
2023-01-10T09:32:57.757Z,49.22
2023-01-10T09:35:25.221Z,49.10
2023-01-10T09:37:58.569Z,49.23
2023-01-10T09:40:45.683Z,49.19
2023-01-10T09:43:43.185Z,49.04
2023-01-10T09:46:13.076Z,48.68
2023-01-10T09:49:05.124Z,48.63
2023-01-10T09:51:39.550Z,48.85
2023-01-10T09:54:12.210Z,48.88
2023-01-10T09:56:40.936Z,48.75
2023-01-10T09:59:19.940Z,48.66
2023-01-10T10:01:48.215Z,48.31
2023-01-10T10:04:28.647Z,48.09
2023-01-10T10:06:55.644Z,48.11
2023-01-10T10:09:28.624Z,48.08
2023-01-10T10:12:17.272Z,48.11
2023-01-10T10:15:10.018Z,48.38
2023-01-10T10:18:04.100Z,48.64
2023-01-10T10:20:44.746Z,48.76
2023-01-10T10:23:41.355Z,48.75
2023-01-10T10:26:32.008Z,49.11
2023-01-10T10:29:20.361Z,49.04
2023-01-10T10:31:53.400Z,49.05
2023-01-10T10:34:36.586Z,49.18
2023-01-10T10:37:13.144Z,48.95
2023-01-10T10:39:44.895Z,49.21
2023-01-10T10:42:14.006Z,49.42
2023-01-10T10:44:55.593Z,49.70
2023-01-10T10:47:23.555Z,50.29
2023-01-10T10:50:02.032Z,49.84
2023-01-10T10:52:34.540Z,49.86
2023-01-10T10:55:07.222Z,49.80
2023-01-10T10:57:35.193Z,50.07
2023-01-10T11:00:02.864Z,50.14
2023-01-10T11:02:31.444Z,50.16
2023-01-10T11:05:01.942Z,50.09
2023-01-10T11:07:32.456Z,50.14
2023-01-10T11:09:59.340Z,50.14
2023-01-10T11:12:30.894Z,49.75
2023-01-10T11:14:59.171Z,49.69
2023-01-10T11:17:28.005Z,49.70
2023-01-10T11:20:05.363Z,49.55
2023-01-10T11:22:43.970Z,49.41
2023-01-10T11:25:18.387Z,49.38
2023-01-10T11:27:51.670Z,49.48
2023-01-10T11:30:27.228Z,49.33
2023-01-10T11:32:58.679Z,49.31
2023-01-10T11:35:27.575Z,49.30
2023-01-10T14:09:44.540Z,48.04
2023-01-10T14:12:29.805Z,47.36
2023-01-10T14:15:02.067Z,47.27
2023-01-10T14:17:36.078Z,47.15
2023-01-10T14:20:14.377Z,46.98
2023-01-10T14:22:42.060Z,46.89
2023-01-10T14:41:38.944Z,46.05
2023-01-10T14:44:13.826Z,45.19
2023-01-10T14:46:55.114Z,45.16
2023-01-10T14:49:35.321Z,45.04
2023-01-10T14:52:13.463Z,44.77
2023-01-10T14:54:40.765Z,44.77
2023-01-10T14:57:19.097Z,44.68
2023-01-10T14:59:46.035Z,44.55
2023-01-10T15:02:24.572Z,44.61
2023-01-10T15:05:27.996Z,44.56
2023-01-10T15:07:55.448Z,44.77
2023-01-10T15:10:31.184Z,44.73
2023-01-10T15:13:00.756Z,44.45
2023-01-10T15:15:36.413Z,44.42
2023-01-10T15:18:21.783Z,44.60
2023-01-10T15:20:48.730Z,44.44
2023-01-10T15:23:15.795Z,44.18
2023-01-10T15:25:43.642Z,44.35
2023-01-10T15:28:14.794Z,44.45
2023-01-10T15:30:41.834Z,44.38
2023-01-10T15:33:13.387Z,44.37
2023-01-10T15:35:42.994Z,44.28
2023-01-10T15:38:20.498Z,44.19
2023-01-10T15:40:58.501Z,44.10
2023-01-10T15:43:26.873Z,44.09
2023-01-10T15:45:55.503Z,43.89
2023-01-10T15:48:43.933Z,43.90
2023-01-10T15:51:19.582Z,43.95
2023-01-10T15:54:00.220Z,43.53
2023-01-10T15:56:50.000Z,43.58
2023-01-10T16:13:28.294Z,42.91
2023-01-10T16:15:55.739Z,42.15
2023-01-10T16:18:22.823Z,42.22
2023-01-10T16:20:51.195Z,42.34
2023-01-10T16:23:19.961Z,42.46
2023-01-10T16:25:48.857Z,42.36
2023-01-10T16:28:16.419Z,42.35
2023-01-10T16:30:46.228Z,42.22
2023-01-10T16:33:18.010Z,42.09
2023-01-10T16:35:45.030Z,42.46
2023-01-10T16:38:13.102Z,42.68
2023-01-10T16:40:41.352Z,42.85
2023-01-10T16:43:17.969Z,42.59
2023-01-10T16:45:48.812Z,42.31
2023-01-10T16:48:16.549Z,42.31
2023-01-10T16:50:46.977Z,42.45
2023-01-10T16:53:15.882Z,42.41
2023-01-10T16:55:44.867Z,42.30
2023-01-10T16:58:13.650Z,41.83
2023-01-10T17:00:41.626Z,42.00
2023-01-10T17:03:11.840Z,42.04
2023-01-10T17:05:38.868Z,42.00
2023-01-10T17:08:06.077Z,42.15
2023-01-10T17:10:34.690Z,42.28
2023-01-10T17:13:03.792Z,42.17
2023-01-10T17:15:31.615Z,42.23
2023-01-10T17:17:59.049Z,42.38
2023-01-10T17:20:27.523Z,42.21
2023-01-10T17:22:54.576Z,42.25
2023-01-10T17:25:21.616Z,42.08
2023-01-10T17:27:48.495Z,42.02
2023-01-10T17:30:15.713Z,42.17
2023-01-10T17:32:42.658Z,41.95
2023-01-10T17:35:13.802Z,41.93
2023-01-10T17:37:42.082Z,41.92
2023-01-10T17:40:09.841Z,42.16
2023-01-10T17:42:36.794Z,42.30
2023-01-10T17:45:04.756Z,42.43
2023-01-10T17:47:32.316Z,42.53
2023-01-10T17:49:59.263Z,42.46
2023-01-10T17:52:26.309Z,42.45
2023-01-10T17:54:53.303Z,42.80
2023-01-10T17:57:20.509Z,42.86
2023-01-10T17:59:47.350Z,43.10
2023-01-10T18:02:17.034Z,43.47
2023-01-10T18:04:44.425Z,43.79
2023-01-10T18:07:12.962Z,44.29
2023-01-10T18:09:40.047Z,44.58
2023-01-10T18:12:10.478Z,44.92
2023-01-10T18:14:38.161Z,45.23
2023-01-10T18:17:10.715Z,45.87
2023-01-10T18:19:37.686Z,46.91
2023-01-10T18:22:23.958Z,47.79
2023-01-10T18:24:54.487Z,48.45
2023-01-10T18:27:22.895Z,49.09
2023-01-10T18:29:50.417Z,49.79
2023-01-10T18:32:18.207Z,50.22
2023-01-10T18:34:46.571Z,50.44
2023-01-10T18:37:14.847Z,50.78
2023-01-10T18:39:44.867Z,50.99
2023-01-10T18:42:11.806Z,51.60
2023-01-10T18:44:40.802Z,52.12
2023-01-10T18:47:07.957Z,54.59
2023-01-10T18:49:34.899Z,55.47
2023-01-10T18:52:01.646Z,55.51
2023-01-10T18:54:28.788Z,55.52
2023-01-10T18:56:55.824Z,55.62
2023-01-10T18:59:22.798Z,55.91
2023-01-10T19:01:49.974Z,56.60
2023-01-10T19:04:18.093Z,56.99
2023-01-10T19:06:45.427Z,57.15
2023-01-10T19:09:12.626Z,57.36
2023-01-10T19:11:39.758Z,57.75
2023-01-10T19:14:06.917Z,58.11
2023-01-10T19:16:34.442Z,58.48
2023-01-10T19:19:03.775Z,58.54
2023-01-10T19:21:31.646Z,58.43
2023-01-10T19:24:04.228Z,58.34
2023-01-10T19:26:31.280Z,58.61
2023-01-10T19:28:58.415Z,58.73
2023-01-10T19:31:28.569Z,58.93
2023-01-10T19:33:59.168Z,59.35
2023-01-10T19:36:26.112Z,59.55
2023-01-10T19:38:56.129Z,59.49
2023-01-10T19:41:27.178Z,59.52
2023-01-10T19:43:58.417Z,59.85
2023-01-10T19:46:25.846Z,59.94
2023-01-10T19:48:54.718Z,60.15
2023-01-10T19:51:21.504Z,60.42
2023-01-10T19:53:50.402Z,60.60
2023-01-10T19:56:22.254Z,60.83
2023-01-10T19:58:49.528Z,60.95
2023-01-10T20:21:34.910Z,59.62
2023-01-10T20:24:01.710Z,58.90
2023-01-10T20:26:31.168Z,58.99
2023-01-10T20:29:02.189Z,59.05
2023-01-10T20:31:29.304Z,59.27
2023-01-10T20:33:56.167Z,59.29
2023-01-10T20:36:23.842Z,59.50
2023-01-10T20:38:50.998Z,59.62
2023-01-10T20:41:28.800Z,59.85
2023-01-10T20:43:56.253Z,60.18
2023-01-10T20:46:27.958Z,60.33
2023-01-10T20:48:55.978Z,60.44
2023-01-10T20:51:25.304Z,60.48
2023-01-10T20:53:52.176Z,60.57
2023-01-10T20:56:20.981Z,60.64
2023-01-10T20:58:48.369Z,60.65
2023-01-10T21:01:24.906Z,60.76
2023-01-10T21:03:59.992Z,61.43
2023-01-10T21:06:26.963Z,61.81
2023-01-10T21:08:54.077Z,62.03
2023-01-10T21:11:21.488Z,61.93
2023-01-10T21:13:48.506Z,62.00
2023-01-10T21:16:18.307Z,61.87
2023-01-10T21:18:45.436Z,61.82
2023-01-10T21:21:14.124Z,61.84
2023-01-10T21:23:41.992Z,61.67
2023-01-10T21:26:10.699Z,61.45
2023-01-10T21:28:39.054Z,61.26
2023-01-10T21:31:06.549Z,61.17
2023-01-10T21:33:33.775Z,61.09
2023-01-10T21:36:00.740Z,60.99
2023-01-10T21:38:29.506Z,60.70
2023-01-10T21:40:57.290Z,60.49
2023-01-10T21:43:24.208Z,60.51
2023-01-10T21:45:51.049Z,60.33
2023-01-10T21:48:17.996Z,60.05
2023-01-10T21:50:45.363Z,59.65
2023-01-10T21:53:12.314Z,59.40
2023-01-10T21:55:39.180Z,59.27
2023-01-10T21:58:06.085Z,59.08
2023-01-10T22:04:00.435Z,59.28
2023-01-10T22:06:27.359Z,58.76
2023-01-10T22:08:54.781Z,59.00
2023-01-10T22:11:21.724Z,59.11
2023-01-10T22:13:54.201Z,59.31
2023-01-10T22:16:21.947Z,59.38
2023-01-10T22:18:49.814Z,59.65
2023-01-10T22:21:19.129Z,59.65
2023-01-10T22:23:46.900Z,60.05
2023-01-10T22:26:14.926Z,60.05
2023-01-10T22:28:43.112Z,60.15
2023-01-10T22:31:10.424Z,60.20
2023-01-10T22:33:37.551Z,60.24
2023-01-10T22:36:16.169Z,60.19
2023-01-10T22:38:47.224Z,60.28
2023-01-10T22:41:18.649Z,60.46
2023-01-10T22:43:46.077Z,60.42
2023-01-10T22:46:17.868Z,60.23
2023-01-10T22:48:45.016Z,60.30
2023-01-10T22:51:12.919Z,60.12
2023-01-10T22:53:40.448Z,60.14
2023-01-10T22:56:09.949Z,60.23
2023-01-10T22:58:37.101Z,60.11
2023-01-10T23:01:05.205Z,59.93
2023-01-10T23:03:32.318Z,59.79
2023-01-10T23:05:59.186Z,59.58
2023-01-10T23:08:26.617Z,59.48
2023-01-10T23:10:53.739Z,59.62
2023-01-10T23:13:21.472Z,59.70
2023-01-10T23:15:58.303Z,59.76
2023-01-10T23:18:25.616Z,59.59
2023-01-10T23:20:52.509Z,59.81
2023-01-10T23:23:22.939Z,59.84
2023-01-10T23:26:00.797Z,59.59
2023-01-10T23:28:33.012Z,59.55
2023-01-10T23:30:59.965Z,59.44
2023-01-10T23:33:26.805Z,59.28
2023-01-10T23:35:53.827Z,59.11
2023-01-10T23:38:20.649Z,59.06
2023-01-10T23:40:50.702Z,59.17
2023-01-10T23:43:17.839Z,59.04
2023-01-10T23:45:44.892Z,58.85
2023-01-10T23:48:12.284Z,58.87
2023-01-10T23:50:39.220Z,58.96
2023-01-10T23:53:06.557Z,58.95
2023-01-10T23:55:37.815Z,58.84
2023-01-10T23:58:04.830Z,58.49
